Lennox, California
Current Conditions -  °F | °C
As of 4:31 AM on Sunday 21 Dec 2014 (Local Time) from KHHR Reporting Station
Broken Clouds Broken Clouds  
Wind Chill: 55°   Ceiling: 1700
Heat Index: 55°   Visibility: 7mi
Dew Point: 48°   Wind: 0mph
Humidity: 77%   Direction: NA
Pressure: 30.12"   Gusts: NA
Location:  33.94°N, 118.35°W
Report Text: KHHR 211231Z AUTO 00000KT 7SM BKN017 13/09 A3012 RMK AO2 T01280089
Loading
Personal Weather Stations






























Interactive Weather Map New forecast layout! Learn more

10-Day Weather Forecast

Advertisements
Track Severe Weather on mobile